createdAt,value
2019-03-11T00:00:38.447Z,65.90
2019-03-11T00:03:07.201Z,39.95
2019-03-11T00:05:35.999Z,41.05
2019-03-11T00:08:05.006Z,53.83
2019-03-11T00:10:33.719Z,36.17
2019-03-11T00:13:02.459Z,35.48
2019-03-11T00:15:31.273Z,28.52
2019-03-11T00:18:00.039Z,23.67
2019-03-11T00:20:29.569Z,21.33
2019-03-11T00:22:58.234Z,21.82
2019-03-11T00:25:26.985Z,19.07
2019-03-11T00:27:55.723Z,19.80
2019-03-11T00:30:24.402Z,24.07
2019-03-11T00:32:53.134Z,23.55
2019-03-11T00:35:21.908Z,35.13
2019-03-11T00:37:50.698Z,42.08
2019-03-11T00:40:19.455Z,45.23
2019-03-11T00:42:48.122Z,45.15
2019-03-11T00:45:16.931Z,37.05
2019-03-11T00:47:45.621Z,30.15
2019-03-11T00:50:15.046Z,31.10
2019-03-11T00:52:43.861Z,24.43
2019-03-11T00:55:13.557Z,26.48
2019-03-11T00:57:42.291Z,27.32
2019-03-11T01:00:20.011Z,19.60
2019-03-11T01:02:48.747Z,22.87
2019-03-11T01:05:17.487Z,28.35
2019-03-11T01:07:46.229Z,29.82
2019-03-11T01:10:14.975Z,24.85
2019-03-11T01:12:43.706Z,24.75
2019-03-11T01:15:12.748Z,24.20
2019-03-11T01:17:41.550Z,24.33
2019-03-11T01:20:11.691Z,26.17
2019-03-11T01:22:40.434Z,14.43
2019-03-11T01:25:10.674Z,33.67
2019-03-11T01:27:39.383Z,28.35
2019-03-11T01:30:13.763Z,16.52
2019-03-11T01:32:42.510Z,18.30
2019-03-11T01:35:11.343Z,30.80
2019-03-11T01:37:40.083Z,27.10
2019-03-11T01:40:13.707Z,17.45
2019-03-11T01:42:42.442Z,23.30
2019-03-11T01:45:13.387Z,22.93
2019-03-11T01:47:42.119Z,21.20
2019-03-11T01:50:12.366Z,36.75
2019-03-11T01:52:41.281Z,23.25
2019-03-11T01:55:11.731Z,33.92
2019-03-11T01:57:40.494Z,43.20
2019-03-11T02:00:14.643Z,27.58
2019-03-11T02:02:43.388Z,27.55
2019-03-11T02:05:12.222Z,19.82
2019-03-11T02:07:41.030Z,23.85
2019-03-11T02:12:46.730Z,19.70
2019-03-11T02:15:19.879Z,19.10
2019-03-11T02:17:48.646Z,21.27
2019-03-11T02:20:18.476Z,28.87
2019-03-11T02:22:47.232Z,21.00
2019-03-11T02:25:16.169Z,14.38
2019-03-11T02:27:45.122Z,20.02
2019-03-11T02:30:18.116Z,21.12
2019-03-11T02:32:46.816Z,15.08
